createdAt,value
2018-06-04T00:02:43.690Z,20.10
2018-06-04T00:05:11.892Z,20.20
2018-06-04T00:07:40.113Z,20.20
2018-06-04T00:10:08.307Z,20.10
2018-06-04T00:12:36.522Z,20.10
2018-06-04T00:15:04.755Z,20.20
2018-06-04T00:17:32.989Z,20.00
2018-06-04T00:20:01.201Z,19.90
2018-06-04T00:22:29.439Z,19.90
2018-06-04T00:24:57.610Z,19.80
2018-06-04T00:27:25.787Z,19.70
2018-06-04T00:29:54.002Z,19.80
2018-06-04T00:32:22.288Z,19.90
2018-06-04T00:34:50.412Z,20.00
2018-06-04T00:37:18.594Z,19.90
2018-06-04T00:39:46.785Z,19.90
2018-06-04T00:42:14.996Z,20.00
2018-06-04T00:44:43.161Z,20.00
2018-06-04T00:47:11.369Z,19.90
2018-06-04T00:49:39.552Z,20.00
2018-06-04T00:52:07.760Z,19.90
2018-06-04T00:54:35.997Z,20.10
2018-06-04T00:57:04.308Z,20.00
2018-06-04T00:59:32.494Z,19.90
2018-06-04T01:19:19.573Z,19.60
2018-06-04T01:21:47.774Z,19.50
2018-06-04T01:24:16.006Z,19.50
2018-06-04T01:26:44.175Z,19.40
2018-06-04T01:29:12.465Z,19.60
2018-06-04T01:31:40.629Z,19.60
2018-06-04T01:34:08.848Z,19.50
2018-06-04T01:36:37.048Z,19.40
2018-06-04T01:39:07.418Z,19.30
2018-06-04T01:41:35.629Z,19.20
2018-06-04T01:44:03.952Z,19.20
2018-06-04T01:49:00.125Z,19.30
2018-06-04T01:51:28.306Z,19.30
2018-06-04T01:53:56.545Z,19.40
2018-06-04T01:56:24.775Z,19.40
2018-06-04T01:58:52.987Z,19.40
2018-06-04T02:01:21.256Z,19.20
2018-06-04T02:03:49.477Z,19.00
2018-06-04T02:06:17.709Z,18.90
2018-06-04T02:08:45.912Z,18.90
2018-06-04T02:13:42.195Z,18.90
2018-06-04T02:16:10.406Z,19.00
2018-06-04T02:18:38.680Z,19.20
2018-06-04T02:21:06.890Z,19.10
2018-06-04T02:23:35.137Z,19.30
2018-06-04T02:26:03.376Z,19.30
2018-06-04T02:28:31.587Z,19.20
2018-06-04T02:30:59.825Z,18.90
2018-06-04T02:33:28.084Z,18.90
2018-06-04T02:35:56.329Z,18.90
2018-06-04T02:38:24.540Z,18.90
2018-06-04T02:40:52.759Z,19.10
2018-06-04T02:43:21.029Z,19.10
2018-06-04T02:45:49.490Z,19.20
2018-06-04T02:48:17.724Z,19.20
2018-06-04T02:50:45.946Z,19.30
2018-06-04T02:53:14.163Z,19.30
2018-06-04T02:55:42.438Z,19.20
2018-06-04T02:58:10.643Z,19.20
2018-06-04T03:00:38.909Z,19.30
2018-06-04T03:03:07.155Z,19.20
2018-06-04T03:05:35.424Z,19.20
2018-06-04T03:08:03.652Z,19.20
2018-06-04T03:10:31.867Z,19.00
2018-06-04T03:13:00.164Z,18.90
2018-06-04T03:15:28.428Z,18.90
2018-06-04T03:17:56.673Z,18.90
2018-06-04T03:20:24.944Z,18.80
2018-06-04T03:22:53.141Z,18.70
2018-06-04T03:25:21.373Z,18.60
2018-06-04T03:27:49.584Z,18.50
2018-06-04T03:30:17.834Z,18.50
2018-06-04T03:32:46.050Z,18.50
2018-06-04T03:37:42.657Z,18.30
2018-06-04T03:40:10.857Z,18.40
2018-06-04T03:42:39.112Z,18.60
2018-06-04T03:45:07.324Z,18.70
2018-06-04T03:47:35.525Z,18.60
2018-06-04T03:50:03.774Z,18.40
2018-06-04T03:52:32.012Z,18.50
2018-06-04T03:55:00.246Z,18.40
2018-06-04T03:57:28.454Z,18.10
2018-06-04T03:59:56.664Z,18.10
2018-06-04T04:02:24.923Z,18.30
2018-06-04T04:04:53.205Z,18.40
2018-06-04T04:07:23.468Z,18.20
2018-06-04T04:09:51.684Z,18.30
2018-06-04T04:12:19.943Z,18.50
2018-06-04T04:14:48.177Z,18.50
2018-06-04T04:17:16.427Z,18.50
2018-06-04T04:19:44.659Z,18.40
2018-06-04T04:22:12.903Z,18.30
2018-06-04T04:24:41.171Z,18.20
2018-06-04T04:29:37.389Z,18.10
2018-06-04T04:32:05.635Z,18.10
2018-06-04T04:34:33.852Z,18.10
2018-06-04T04:37:02.139Z,18.20
2018-06-04T04:39:30.395Z,18.20
2018-06-04T04:41:58.727Z,18.10
2018-06-04T04:46:55.090Z,18.20
2018-06-04T04:49:23.368Z,18.20
2018-06-04T04:51:51.689Z,18.20
2018-06-04T04:54:19.912Z,18.30
2018-06-04T04:56:48.130Z,18.40
2018-06-04T04:59:17.390Z,18.50
2018-06-04T05:01:45.635Z,18.60
2018-06-04T05:04:13.854Z,18.50
2018-06-04T05:06:42.137Z,18.60
2018-06-04T05:09:10.394Z,18.50
2018-06-04T05:11:38.618Z,18.60
2018-06-04T05:14:06.849Z,18.60
2018-06-04T05:16:35.197Z,18.70
2018-06-04T05:19:03.459Z,18.70
2018-06-04T05:21:31.672Z,18.70
2018-06-04T05:23:59.902Z,18.80
2018-06-04T05:26:28.205Z,18.70
2018-06-04T05:28:56.432Z,18.80
2018-06-04T05:31:25.704Z,18.80
2018-06-04T05:33:53.931Z,18.90
2018-06-04T05:36:22.167Z,18.90
2018-06-04T05:38:50.828Z,18.90
2018-06-04T05:41:19.057Z,19.00
2018-06-04T05:43:47.312Z,19.00
2018-06-04T05:46:15.513Z,19.00
2018-06-04T05:48:43.746Z,19.00
2018-06-04T05:51:11.973Z,19.10
2018-06-04T05:53:40.218Z,19.30
2018-06-04T05:56:08.519Z,19.30
2018-06-04T05:58:36.698Z,19.40
2018-06-04T06:01:04.960Z,19.30
2018-06-04T06:03:33.184Z,19.30
2018-06-04T06:06:01.394Z,19.40
2018-06-04T06:08:29.645Z,19.40
2018-06-04T06:10:57.886Z,19.40
2018-06-04T06:13:26.155Z,19.50
2018-06-04T06:15:54.765Z,19.50
2018-06-04T06:18:23.063Z,19.50
2018-06-04T06:20:51.361Z,19.50
2018-06-04T06:23:19.637Z,19.60
2018-06-04T06:25:47.859Z,19.60
2018-06-04T06:28:16.123Z,19.70
2018-06-04T06:30:44.470Z,19.80
2018-06-04T06:35:40.616Z,19.70
2018-06-04T06:38:08.844Z,19.80
2018-06-04T06:40:37.202Z,19.80
2018-06-04T06:43:05.453Z,19.80
2018-06-04T06:45:33.723Z,19.80
2018-06-04T06:48:01.986Z,19.80
2018-06-04T06:50:30.220Z,19.80
2018-06-04T06:52:58.468Z,19.80
2018-06-04T06:55:27.282Z,19.70
2018-06-04T06:57:55.574Z,19.80
2018-06-04T07:00:23.870Z,19.90
2018-06-04T07:02:52.152Z,20.00
2018-06-04T07:05:20.447Z,19.80
2018-06-04T07:07:48.691Z,19.70
2018-06-04T07:10:16.919Z,19.90
2018-06-04T07:12:45.152Z,20.10
2018-06-04T07:15:13.391Z,20.30
2018-06-04T07:17:41.628Z,20.30
2018-06-04T07:20:09.854Z,20.10
2018-06-04T07:22:38.088Z,20.10
2018-06-04T07:25:06.481Z,20.30
2018-06-04T07:27:34.749Z,20.20
2018-06-04T07:30:03.038Z,20.40
2018-06-04T07:32:31.343Z,20.20
2018-06-04T07:34:59.637Z,20.20
2018-06-04T07:37:28.062Z,20.10
2018-06-04T07:39:56.345Z,20.30
2018-06-04T07:42:24.609Z,20.30
2018-06-04T07:44:55.042Z,20.40
2018-06-04T07:47:23.311Z,20.50
2018-06-04T07:49:51.615Z,20.50
2018-06-04T07:52:19.911Z,20.60
2018-06-04T07:54:48.171Z,20.60
2018-06-04T07:57:16.514Z,20.60
2018-06-04T07:59:44.667Z,20.60
2018-06-04T08:02:12.922Z,20.60
2018-06-04T08:04:41.173Z,20.70
2018-06-04T08:07:09.369Z,20.80
2018-06-04T08:09:37.637Z,20.80
2018-06-04T08:12:05.948Z,21.00
2018-06-04T08:14:34.184Z,21.00
2018-06-04T08:17:02.406Z,21.00
2018-06-04T08:19:30.708Z,21.00
2018-06-04T08:21:58.946Z,21.00
2018-06-04T08:24:27.327Z,21.10
2018-06-04T08:26:55.657Z,21.20
2018-06-04T08:29:24.128Z,21.30
2018-06-04T08:31:52.389Z,21.30
2018-06-04T08:34:20.618Z,21.40
2018-06-04T08:36:48.873Z,21.50
2018-06-04T08:39:17.113Z,21.60
2018-06-04T08:41:46.315Z,21.70
2018-06-04T08:44:14.603Z,21.80
2018-06-04T08:46:42.865Z,22.00
2018-06-04T08:49:11.142Z,21.90
2018-06-04T08:51:39.424Z,22.00
2018-06-04T08:56:35.672Z,22.10
2018-06-04T08:59:03.923Z,22.30
2018-06-04T09:01:32.184Z,22.20
2018-06-04T09:04:00.395Z,22.50
2018-06-04T09:06:28.616Z,22.50
2018-06-04T09:08:56.873Z,22.80
2018-06-04T09:11:25.156Z,22.90
2018-06-04T09:13:53.357Z,22.80
2018-06-04T09:16:21.611Z,23.00
2018-06-04T09:18:49.860Z,23.10
2018-06-04T09:21:18.161Z,23.20
2018-06-04T09:23:46.386Z,23.10
2018-06-04T09:26:14.618Z,23.20
2018-06-04T09:28:42.795Z,23.40
2018-06-04T09:31:11.014Z,23.50
2018-06-04T09:33:39.286Z,23.60
2018-06-04T09:36:07.521Z,23.50
2018-06-04T09:38:35.740Z,23.50
2018-06-04T09:41:04.018Z,23.70
2018-06-04T09:43:32.253Z,23.90
2018-06-04T09:46:00.497Z,24.00
2018-06-04T09:48:28.728Z,24.10
2018-06-04T09:50:56.974Z,24.20
2018-06-04T09:53:25.248Z,24.40
2018-06-04T09:55:53.481Z,24.50
2018-06-04T09:58:21.676Z,24.50
2018-06-04T10:00:49.933Z,24.40
2018-06-04T10:03:18.221Z,24.40
2018-06-04T10:05:46.481Z,24.40
2018-06-04T10:08:14.745Z,24.50
2018-06-04T10:10:44.076Z,24.70
2018-06-04T10:13:18.854Z,24.80
2018-06-04T10:15:47.064Z,24.90
2018-06-04T10:18:15.331Z,25.30
2018-06-04T10:20:43.561Z,25.30
2018-06-04T10:23:11.815Z,25.30
2018-06-04T10:25:40.141Z,25.40
2018-06-04T10:30:36.435Z,25.30
2018-06-04T10:33:04.704Z,25.50
2018-06-04T10:35:33.001Z,25.80
2018-06-04T10:38:01.288Z,25.60
2018-06-04T10:40:29.577Z,25.70
2018-06-04T10:42:57.848Z,25.80
2018-06-04T10:45:27.642Z,25.90
2018-06-04T10:47:55.888Z,25.90
2018-06-04T10:50:24.409Z,26.10
2018-06-04T10:52:52.609Z,26.10
2018-06-04T10:55:20.870Z,26.00
2018-06-04T10:57:49.098Z,26.10
2018-06-04T11:00:17.322Z,26.10
2018-06-04T11:02:45.586Z,26.10
2018-06-04T11:05:13.790Z,26.30
2018-06-04T11:07:42.077Z,26.30
2018-06-04T11:10:10.329Z,26.20
2018-06-04T11:12:39.602Z,26.20
2018-06-04T11:15:07.827Z,26.40
2018-06-04T11:17:36.769Z,26.50
2018-06-04T11:20:05.232Z,26.70
2018-06-04T11:22:33.542Z,26.80
2018-06-04T11:25:01.793Z,26.60
2018-06-04T11:27:30.060Z,26.80
2018-06-04T11:29:58.282Z,26.80
2018-06-04T11:32:26.615Z,26.80
2018-06-04T11:34:54.866Z,27.00
2018-06-04T11:37:23.098Z,27.20
2018-06-04T11:39:51.336Z,27.10
2018-06-04T11:42:19.540Z,27.30
2018-06-04T11:44:48.970Z,27.50
2018-06-04T11:47:17.201Z,27.40
2018-06-04T11:49:45.437Z,27.70
2018-06-04T11:52:13.652Z,27.70
2018-06-04T11:54:41.942Z,27.40
2018-06-04T11:59:38.118Z,27.10
2018-06-04T12:02:06.338Z,27.20
2018-06-04T12:04:34.532Z,27.50
2018-06-04T12:07:02.775Z,27.20
2018-06-04T12:09:31.036Z,27.40
2018-06-04T12:11:59.268Z,27.50
2018-06-04T12:14:27.467Z,27.20
2018-06-04T12:16:55.700Z,27.00
2018-06-04T12:19:23.896Z,27.10
2018-06-04T12:21:52.219Z,27.30
2018-06-04T12:24:20.433Z,27.30
2018-06-04T12:26:48.672Z,27.20
2018-06-04T12:29:16.925Z,27.20
2018-06-04T12:31:45.158Z,27.50
2018-06-04T12:34:13.367Z,27.80
2018-06-04T12:36:42.832Z,28.00
2018-06-04T12:39:11.534Z,28.20
2018-06-04T12:41:39.787Z,28.10
2018-06-04T12:46:36.282Z,28.20
2018-06-04T12:49:04.510Z,28.20
2018-06-04T12:51:32.755Z,28.20
2018-06-04T12:54:00.972Z,28.10
2018-06-04T12:56:29.215Z,27.90
2018-06-04T12:58:57.433Z,27.80
2018-06-04T13:01:25.657Z,28.10
2018-06-04T13:03:54.488Z,28.20
2018-06-04T13:06:22.739Z,28.20
2018-06-04T13:08:51.033Z,28.40
2018-06-04T13:11:19.301Z,28.70
2018-06-04T13:13:47.554Z,28.80
2018-06-04T13:16:15.855Z,28.70
2018-06-04T13:18:45.104Z,28.70
2018-06-04T13:21:13.320Z,28.80
2018-06-04T13:23:41.561Z,29.00
2018-06-04T13:26:09.806Z,29.10
2018-06-04T13:28:38.030Z,29.00
2018-06-04T13:31:06.687Z,29.10
2018-06-04T13:33:35.309Z,29.00
2018-06-04T13:36:04.492Z,29.30
2018-06-04T13:38:32.693Z,29.30
2018-06-04T13:41:00.910Z,29.10
2018-06-04T13:43:29.177Z,29.20
2018-06-04T13:48:25.332Z,29.10
2018-06-04T13:50:53.548Z,29.30
2018-06-04T13:53:21.826Z,29.50
2018-06-04T13:55:50.068Z,29.50
2018-06-04T13:58:18.314Z,29.40
2018-06-04T14:00:46.571Z,29.90
2018-06-04T14:03:14.870Z,29.70
2018-06-04T14:05:43.080Z,29.70
2018-06-04T14:08:11.329Z,29.40
2018-06-04T14:10:39.607Z,29.70
2018-06-04T14:13:07.848Z,29.50
2018-06-04T14:15:36.135Z,29.50
2018-06-04T14:18:04.343Z,29.50
2018-06-04T14:20:32.595Z,29.50
2018-06-04T14:23:00.815Z,29.50
2018-06-04T14:25:29.064Z,29.40
2018-06-04T14:27:57.308Z,29.40
2018-06-04T14:30:25.617Z,29.70
2018-06-04T14:32:53.799Z,29.80
2018-06-04T14:35:23.610Z,29.40
2018-06-04T14:37:51.849Z,29.70
2018-06-04T14:40:31.968Z,29.60
2018-06-04T14:43:00.201Z,29.60
2018-06-04T14:45:29.501Z,29.60
2018-06-04T14:47:57.724Z,29.70
2018-06-04T14:50:28.337Z,29.70
2018-06-04T14:52:56.618Z,29.70
2018-06-04T14:55:27.165Z,29.80
2018-06-04T14:57:55.357Z,29.90
2018-06-04T15:00:25.899Z,29.80
2018-06-04T15:02:54.177Z,29.50
2018-06-04T15:05:22.398Z,29.70
2018-06-04T15:07:50.648Z,29.90
2018-06-04T15:10:22.865Z,29.60
2018-06-04T15:12:51.108Z,29.70
2018-06-04T15:15:20.634Z,29.70
2018-06-04T15:17:48.943Z,29.70
2018-06-04T15:20:17.210Z,29.90
2018-06-04T15:22:45.430Z,29.80
2018-06-04T15:25:13.642Z,29.70
2018-06-04T15:27:41.875Z,29.80
2018-06-04T15:30:10.098Z,29.50
2018-06-04T15:32:38.349Z,29.70
2018-06-04T15:35:06.656Z,29.80
2018-06-04T15:37:34.891Z,29.70
2018-06-04T15:40:03.128Z,29.90
2018-06-04T15:44:51.063Z,29.80
2018-06-04T15:47:19.218Z,29.80
2018-06-04T15:49:47.381Z,29.90
2018-06-04T15:52:15.535Z,29.70
2018-06-04T15:54:43.701Z,29.80
2018-06-04T15:57:11.842Z,29.80
2018-06-04T15:59:40.017Z,29.80
2018-06-04T16:02:08.204Z,29.80
2018-06-04T16:04:36.358Z,29.80
2018-06-04T16:07:04.580Z,29.60
2018-06-04T16:09:32.799Z,29.60
2018-06-04T16:12:00.983Z,29.70
2018-06-04T16:14:29.117Z,29.70
2018-06-04T16:16:57.278Z,29.60
2018-06-04T16:19:25.437Z,29.60
2018-06-04T16:21:53.599Z,29.30
2018-06-04T16:26:49.684Z,29.00
2018-06-04T16:29:17.845Z,29.20
2018-06-04T16:31:46.108Z,29.10
2018-06-04T16:51:33.520Z,28.80
2018-06-04T16:54:01.793Z,28.70
2018-06-04T16:56:29.955Z,28.70
2018-06-04T16:58:58.121Z,28.80
2018-06-04T17:01:26.282Z,28.90
2018-06-04T17:03:54.432Z,28.80
2018-06-04T17:06:23.014Z,28.70
2018-06-04T17:08:51.154Z,28.60
2018-06-04T17:11:19.320Z,28.50
2018-06-04T17:13:47.508Z,28.60
2018-06-04T17:16:15.678Z,28.60
2018-06-04T17:18:43.931Z,28.60
2018-06-04T17:21:12.122Z,28.60
2018-06-04T17:23:40.279Z,28.40
2018-06-04T17:26:08.429Z,28.30
2018-06-04T17:28:36.567Z,28.30
2018-06-04T17:31:04.737Z,28.10
2018-06-04T17:33:32.902Z,28.10
2018-06-04T17:36:01.068Z,28.20
2018-06-04T17:38:29.321Z,28.10
2018-06-04T17:40:57.495Z,28.20
2018-06-04T17:43:25.639Z,28.20
2018-06-04T17:45:53.810Z,28.20
2018-06-04T17:48:21.956Z,28.10
2018-06-04T17:50:50.614Z,28.10
2018-06-04T17:55:46.697Z,28.10
2018-06-04T17:58:14.991Z,27.70
2018-06-04T18:00:43.590Z,27.60
2018-06-04T18:03:12.184Z,27.60
2018-06-04T18:05:40.362Z,27.80
2018-06-04T18:08:08.862Z,27.60
2018-06-04T18:10:37.077Z,27.60
2018-06-04T18:13:05.252Z,27.40
2018-06-04T18:15:33.433Z,27.20
2018-06-04T18:18:01.619Z,27.30
2018-06-04T18:20:29.796Z,27.20
2018-06-04T18:22:57.987Z,27.00
2018-06-04T18:25:26.217Z,26.90
2018-06-04T18:27:54.401Z,26.90
2018-06-04T18:30:24.064Z,26.90
2018-06-04T18:32:52.252Z,26.80
2018-06-04T18:35:20.680Z,26.60
2018-06-04T18:37:49.272Z,26.50
2018-06-04T18:40:17.464Z,26.50
2018-06-04T18:42:45.691Z,26.40
2018-06-04T19:02:32.481Z,25.90
2018-06-04T19:05:00.737Z,25.70
2018-06-04T19:07:29.597Z,25.90
2018-06-04T19:09:57.869Z,25.90
2018-06-04T19:12:26.522Z,25.70
2018-06-04T19:17:22.661Z,25.60
2018-06-04T19:37:10.172Z,25.30
2018-06-04T19:56:59.799Z,24.70
2018-06-04T19:59:28.554Z,24.50
2018-06-04T20:01:57.555Z,24.60
2018-06-04T20:04:26.374Z,24.70
2018-06-04T20:06:55.266Z,24.60
2018-06-04T20:26:43.026Z,24.00
2018-06-04T20:29:11.768Z,24.00
2018-06-04T20:31:40.974Z,24.10
2018-06-04T20:51:28.259Z,23.70
2018-06-04T20:53:57.122Z,23.70
2018-06-04T20:56:25.789Z,23.70
2018-06-04T20:58:54.435Z,23.70
2018-06-04T21:01:23.569Z,23.80
2018-06-04T21:03:53.025Z,23.70
2018-06-04T21:08:51.174Z,23.50
2018-06-04T21:28:39.096Z,23.40
2018-06-04T21:31:07.816Z,23.40
2018-06-04T21:33:36.381Z,23.40
2018-06-04T21:36:05.231Z,23.30
2018-06-04T21:38:34.139Z,23.30
2018-06-04T21:41:02.763Z,23.20
2018-06-04T21:43:31.366Z,23.20
2018-06-04T21:45:59.980Z,23.20
2018-06-04T21:48:29.530Z,23.10
2018-06-04T22:08:17.156Z,22.60
2018-06-04T22:10:47.671Z,22.60
2018-06-04T22:13:16.396Z,22.50
2018-06-04T22:15:45.067Z,22.50
2018-06-04T22:18:14.677Z,22.30
2018-06-04T22:20:43.276Z,22.30
2018-06-04T22:23:12.919Z,22.30
2018-06-04T22:25:42.178Z,22.20
2018-06-04T22:28:10.850Z,22.20
2018-06-04T22:30:40.287Z,22.20
2018-06-04T22:33:10.373Z,22.20
2018-06-04T22:35:39.471Z,22.20
2018-06-04T22:38:08.171Z,22.20
2018-06-04T22:40:37.157Z,22.10
2018-06-04T22:43:06.085Z,22.10
2018-06-04T22:45:35.464Z,21.90
2018-06-04T22:48:05.077Z,21.80
2018-06-04T22:50:33.735Z,21.70
2018-06-04T22:53:03.732Z,21.70
2018-06-04T22:55:32.832Z,21.70
2018-06-04T22:58:01.510Z,21.60
2018-06-04T23:00:34.601Z,21.50
2018-06-04T23:03:04.572Z,21.40
2018-06-04T23:05:33.259Z,21.50
2018-06-04T23:08:01.852Z,21.50
2018-06-04T23:10:31.563Z,21.50
2018-06-04T23:13:00.627Z,21.40
2018-06-04T23:15:30.054Z,21.30
2018-06-04T23:18:00.398Z,21.30
2018-06-04T23:20:28.886Z,21.20
2018-06-04T23:40:16.990Z,21.10
2018-06-04T23:42:45.634Z,21.10
2018-06-04T23:45:14.290Z,21.10
2018-06-04T23:47:43.048Z,21.10
2018-06-04T23:50:11.902Z,21.00
2018-06-04T23:52:41.662Z,21.00
2018-06-04T23:55:11.014Z,21.00
2018-06-04T23:57:39.617Z,21.00
